الصفحة الرئيسية
METAR-TAF:

METAR-TAF

مطار :

مطار أوكلاند الدولي

أوكلاند, نيوزيلندا

دائرة عرض: 37-01S, خط طول: 174-48E, ارتفاع: 7 متر

مراقبة الطقس الحالي

تاريخ ووقت الإصدار 36 دقيقة قبل الساعة 12:30UTC
ريح 7 عقدة من الجنوب/الجنوب الغربي
درجة الحرارة 19°درجة مئوية
الرطوبة 88%
ضغط 1015 hPa
الرؤية 10 كم أو أكثر

METAR: NZAA 261230Z AUTO 20007KT 9999 BKN016/// 19/17 Q1015 TEMPO BKN014

زمن: 02:06 (13:06 UTC)

توقعات

تاريخ ووقت الإصدار 2ساعات و 1 دقيقة قبل الساعة 11:05UTC
التوقعات صالحة من26 الساعة 12 UTC إلى 27 الساعة 12 UTC
ريح 5 عقدة من الجنوب
الرؤية 10 كم أو أكثر
غيوم متفرقة على ارتفاع 2500 قدم
مؤقت
من 26 الساعة 14 UTC إلى 26 الساعة 21 UTC
غيوم مفككة على ارتفاع 1400 قدم
أصبح
من 26 الساعة 22 UTC إلى 27 الساعة 00 UTC
ريح 10 عقدة من الغرب/الجنوب الغربي
أصبح
من 27 الساعة 07 UTC إلى 27 الساعة 09 UTC
ريح 5 عقدة من الجنوب

TAF: NZAA 261105Z 2612/2712 18005KT 9999 SCT025 TEMPO 2614/2621 BKN014 BECMG 2622/2700 24010KT BECMG 2707/2709 18005KT

أرصاد الطقس والتوقعات من أكثر من 4000 مطار (تقارير الطقس للمطار METAR والتنبؤ بالطقس بالمطارTAF).

المحطات المتاحة هي النقط الصفراء والحمراء على الخريطة.

حرك المؤشر فوق النقطة لمعرفة اسم المحطة.

ثم انقر لمعرفة أرصاد وتوقعات الطقس.

لتغيير الخارطة: اضغط على الأزرار الخضراء مع رمز الصليب الأسود للتكبير. على الزر الأخضر مع شرطة للتصغير، أو على الأسهم الخضراء للخرائط المجاورة.


METAR-TAF: